createdAt,value
2022-10-22T00:01:11.684Z,8.73
2022-10-22T00:03:41.611Z,8.50
2022-10-22T00:06:09.898Z,9.13
2022-10-22T00:08:37.734Z,9.23
2022-10-22T00:11:24.076Z,8.70
2022-10-22T00:13:52.088Z,8.18
2022-10-22T00:16:20.194Z,8.75
2022-10-22T00:18:48.538Z,8.60
2022-10-22T00:21:17.486Z,8.05
2022-10-22T00:23:45.443Z,8.52
2022-10-22T00:26:13.835Z,8.85
2022-10-22T00:28:41.752Z,9.57
2022-10-22T00:31:10.491Z,8.38
2022-10-22T00:33:38.278Z,9.15
2022-10-22T00:36:06.847Z,8.80
2022-10-22T00:38:35.365Z,9.57
2022-10-22T00:41:03.764Z,8.57
2022-10-22T00:43:31.660Z,9.40
2022-10-22T00:45:59.755Z,8.95
2022-10-22T00:48:30.009Z,9.25
2022-10-22T00:51:08.014Z,9.07
2022-10-22T00:53:41.503Z,9.40
2022-10-22T00:56:11.033Z,9.35
2022-10-22T00:58:44.588Z,8.60
2022-10-22T01:01:18.419Z,10.38
2022-10-22T01:03:46.279Z,10.07
2022-10-22T01:06:28.606Z,6.20
2022-10-22T01:09:21.011Z,9.23
2022-10-22T01:12:15.324Z,9.40
2022-10-22T01:15:03.907Z,9.57
2022-10-22T01:17:56.792Z,9.45
2022-10-22T01:20:39.911Z,9.90
2022-10-22T01:23:23.379Z,10.05
2022-10-22T01:25:58.815Z,9.27
2022-10-22T01:28:51.024Z,10.23
2022-10-22T01:31:21.207Z,10.60
2022-10-22T01:33:50.545Z,10.98
2022-10-22T01:36:19.632Z,10.30
2022-10-22T01:38:49.702Z,11.23
2022-10-22T01:41:17.741Z,11.00
2022-10-22T01:43:45.884Z,11.07
2022-10-22T01:46:14.745Z,11.07
2022-10-22T01:49:03.894Z,10.82
2022-10-22T01:52:03.234Z,11.40
2022-10-22T01:55:22.490Z,11.05
2022-10-22T01:58:24.315Z,11.82
2022-10-22T02:01:28.243Z,11.15
2022-10-22T02:04:12.812Z,10.35
2022-10-22T02:06:44.546Z,10.63
2022-10-22T02:09:15.307Z,11.90
2022-10-22T02:11:44.821Z,12.13
2022-10-22T02:14:14.446Z,11.90
2022-10-22T02:16:45.631Z,12.68
2022-10-22T02:19:43.195Z,12.13
2022-10-22T02:22:11.648Z,11.07
2022-10-22T02:24:39.798Z,12.57
2022-10-22T02:27:34.237Z,11.82
2022-10-22T02:30:07.185Z,12.10
2022-10-22T02:32:48.799Z,12.18
2022-10-22T02:35:23.643Z,12.88
2022-10-22T02:37:54.624Z,12.93
2022-10-22T02:42:51.704Z,13.38
2022-10-22T02:45:20.681Z,14.35
2022-10-22T02:47:49.260Z,14.20
2022-10-22T02:50:17.292Z,14.10
2022-10-22T02:52:45.303Z,14.32
2022-10-22T02:55:13.243Z,14.98
2022-10-22T02:57:41.658Z,15.70
2022-10-22T03:00:11.425Z,15.45
2022-10-22T03:02:39.582Z,17.05
2022-10-22T03:05:08.004Z,17.10
2022-10-22T03:07:36.196Z,16.77
2022-10-22T03:10:04.697Z,14.38
2022-10-22T03:12:32.983Z,14.93
2022-10-22T03:15:00.695Z,14.70
2022-10-22T03:17:28.875Z,14.30
2022-10-22T03:19:56.679Z,14.40
2022-10-22T03:22:28.109Z,16.90
2022-10-22T03:25:00.892Z,14.93
2022-10-22T03:27:30.565Z,17.40
2022-10-22T03:29:59.910Z,17.60
2022-10-22T03:32:27.997Z,17.02
2022-10-22T03:34:56.022Z,16.60
2022-10-22T03:37:25.353Z,15.23
2022-10-22T03:39:54.636Z,18.10
2022-10-22T03:42:23.093Z,18.98
2022-10-22T03:44:51.109Z,21.23
2022-10-22T03:47:19.264Z,21.65
2022-10-22T03:49:47.272Z,19.33
2022-10-22T03:52:15.725Z,17.90
2022-10-22T03:54:44.289Z,16.38
2022-10-22T03:57:12.599Z,17.95
2022-10-22T03:59:45.338Z,20.17
2022-10-22T04:02:14.201Z,18.40
2022-10-22T04:04:42.140Z,17.15
2022-10-22T04:07:10.317Z,17.50
2022-10-22T04:09:38.157Z,17.98
2022-10-22T04:12:08.175Z,17.45
2022-10-22T04:14:36.034Z,16.58
2022-10-22T04:17:04.218Z,16.85
2022-10-22T04:19:32.089Z,16.55
2022-10-22T04:22:01.015Z,16.95
2022-10-22T04:24:32.035Z,17.90
2022-10-22T04:27:00.971Z,18.58
2022-10-22T04:29:29.108Z,17.73
2022-10-22T04:31:57.419Z,16.88
2022-10-22T04:34:28.566Z,17.77
2022-10-22T04:36:56.940Z,17.83
2022-10-22T04:39:24.798Z,18.98
2022-10-22T04:41:52.880Z,18.42
2022-10-22T04:44:20.886Z,16.92
2022-10-22T04:46:49.184Z,18.02
2022-10-22T04:49:17.071Z,18.05
2022-10-22T04:51:47.412Z,19.40
2022-10-22T04:54:15.322Z,19.20
2022-10-22T04:56:43.684Z,18.77
2022-10-22T04:59:15.125Z,18.52
2022-10-22T05:01:44.812Z,19.70
2022-10-22T05:04:15.809Z,20.25
2022-10-22T05:06:44.905Z,22.02
2022-10-22T05:09:15.441Z,21.38
2022-10-22T05:11:49.090Z,21.38
2022-10-22T05:14:22.764Z,21.90
2022-10-22T05:16:52.077Z,21.48
2022-10-22T05:19:25.771Z,23.55
2022-10-22T05:21:56.758Z,23.17
2022-10-22T05:24:25.865Z,23.83
2022-10-22T05:26:56.088Z,24.08
2022-10-22T05:29:24.497Z,25.20
2022-10-22T05:31:53.479Z,23.27
2022-10-22T05:34:21.541Z,24.33
2022-10-22T05:36:49.728Z,23.30
2022-10-22T05:39:17.555Z,23.50
2022-10-22T05:41:45.671Z,22.02
2022-10-22T05:44:16.519Z,30.83
2022-10-22T05:46:45.020Z,33.33
2022-10-22T05:49:15.321Z,49.55
2022-10-22T05:51:43.539Z,40.72
2022-10-22T05:54:19.965Z,32.33
2022-10-22T05:56:48.287Z,28.90
2022-10-22T05:59:16.068Z,28.38
2022-10-22T06:01:44.633Z,26.75
2022-10-22T06:04:13.596Z,26.60
2022-10-22T06:06:53.548Z,24.13
2022-10-22T06:09:28.141Z,25.42
2022-10-22T06:11:57.412Z,25.58
2022-10-22T06:14:25.974Z,25.30
2022-10-22T06:16:54.534Z,25.08
2022-10-22T06:19:27.295Z,25.77
2022-10-22T06:21:55.513Z,25.93
2022-10-22T06:24:23.536Z,27.52
2022-10-22T06:26:52.495Z,25.92
2022-10-22T06:29:22.147Z,25.27
2022-10-22T06:31:50.259Z,26.20
2022-10-22T06:34:19.235Z,28.23
2022-10-22T06:36:47.727Z,25.67
2022-10-22T06:39:17.924Z,25.67
2022-10-22T06:41:46.104Z,29.05
2022-10-22T06:44:19.735Z,26.40
2022-10-22T06:46:52.667Z,25.52
2022-10-22T06:49:21.888Z,28.75
2022-10-22T06:51:54.167Z,27.02
2022-10-22T06:54:23.066Z,26.63
2022-10-22T06:56:51.327Z,29.33
2022-10-22T06:59:19.187Z,25.27
2022-10-22T07:01:47.477Z,23.75
2022-10-22T07:04:15.792Z,26.52
2022-10-22T07:06:44.215Z,28.10
2022-10-22T07:09:12.452Z,30.42
2022-10-22T07:11:43.540Z,28.73
2022-10-22T07:14:12.462Z,28.52
2022-10-22T07:16:45.811Z,28.35
2022-10-22T07:19:14.363Z,28.08
2022-10-22T07:21:44.539Z,27.80
2022-10-22T07:24:12.449Z,25.50
2022-10-22T07:26:41.273Z,24.83
2022-10-22T07:29:10.291Z,25.38
2022-10-22T07:31:38.573Z,25.45
2022-10-22T07:34:06.497Z,23.60
2022-10-22T07:36:35.036Z,26.67
2022-10-22T07:39:03.173Z,27.50
2022-10-22T07:41:31.313Z,29.20
2022-10-22T07:43:59.652Z,31.80
2022-10-22T07:46:28.465Z,30.58
2022-10-22T07:48:56.566Z,32.15
2022-10-22T07:51:24.824Z,25.92
2022-10-22T07:53:52.618Z,22.63
2022-10-22T07:56:21.321Z,22.33
2022-10-22T07:58:49.179Z,22.30
2022-10-22T08:01:17.515Z,18.85
2022-10-22T08:03:45.345Z,18.88
2022-10-22T08:06:15.095Z,19.00
2022-10-22T08:08:43.837Z,18.15
2022-10-22T08:11:12.263Z,18.73
2022-10-22T08:13:44.874Z,17.25
2022-10-22T08:16:14.512Z,19.35
2022-10-22T08:18:42.320Z,18.63
2022-10-22T08:21:11.611Z,15.90
2022-10-22T08:23:39.531Z,15.00
2022-10-22T08:26:07.666Z,14.57
2022-10-22T08:28:37.376Z,14.43
2022-10-22T08:31:08.692Z,14.32
2022-10-22T08:33:39.022Z,14.02
2022-10-22T08:36:08.298Z,14.82
2022-10-22T08:38:36.277Z,14.15
2022-10-22T08:41:24.577Z,13.48
2022-10-22T08:44:33.045Z,14.38
2022-10-22T08:47:25.553Z,14.90
2022-10-22T08:49:54.934Z,28.83
2022-10-22T08:52:23.008Z,18.38
2022-10-22T08:54:59.595Z,14.63
2022-10-22T08:57:52.129Z,14.02
2022-10-22T09:00:37.847Z,13.95
2022-10-22T09:03:33.404Z,14.13
2022-10-22T09:06:18.992Z,13.95
2022-10-22T09:08:48.743Z,15.13
2022-10-22T09:11:38.210Z,13.65
2022-10-22T09:14:07.181Z,16.70
2022-10-22T09:16:53.110Z,18.08
2022-10-22T09:19:39.999Z,16.05
2022-10-22T09:22:41.679Z,18.75
2022-10-22T09:25:27.092Z,18.02
2022-10-22T09:27:58.769Z,19.33
2022-10-22T09:30:34.261Z,18.15
2022-10-22T09:33:08.342Z,24.15
2022-10-22T09:36:03.666Z,20.90
2022-10-22T09:38:33.920Z,20.85
2022-10-22T09:41:05.781Z,19.60
2022-10-22T09:43:36.333Z,19.73
2022-10-22T09:48:41.133Z,20.75
2022-10-22T09:51:17.989Z,19.73
2022-10-22T09:54:00.260Z,20.70
2022-10-22T09:56:37.302Z,21.25
2022-10-22T09:59:14.141Z,20.98
2022-10-22T10:01:42.975Z,20.60
2022-10-22T10:04:17.676Z,21.40
2022-10-22T10:06:45.990Z,24.60
2022-10-22T10:09:18.050Z,26.90
2022-10-22T10:12:04.622Z,29.80
2022-10-22T10:14:41.421Z,30.27
2022-10-22T10:17:23.748Z,25.35
2022-10-22T10:20:14.936Z,23.92
2022-10-22T10:22:58.024Z,23.17
2022-10-22T10:25:40.074Z,21.00
2022-10-22T10:28:25.845Z,21.00
2022-10-22T10:31:26.058Z,19.85
2022-10-22T10:33:54.076Z,19.02
2022-10-22T10:36:36.866Z,18.10
2022-10-22T10:39:18.965Z,16.95
2022-10-22T10:42:05.265Z,18.02
2022-10-22T10:44:48.817Z,18.40
2022-10-22T10:47:26.118Z,23.48
2022-10-22T10:49:59.821Z,29.95
2022-10-22T10:52:57.386Z,21.20
2022-10-22T10:55:36.354Z,20.55
2022-10-22T10:58:13.385Z,17.45
2022-10-22T11:01:11.894Z,18.00
2022-10-22T11:04:01.119Z,17.58
2022-10-22T11:06:32.889Z,24.58
2022-10-22T11:09:18.263Z,23.45
2022-10-22T11:11:50.671Z,21.75
2022-10-22T11:14:27.823Z,23.88
2022-10-22T11:17:15.314Z,25.23
2022-10-22T11:19:52.266Z,23.90
2022-10-22T11:22:32.366Z,27.15
2022-10-22T11:25:16.859Z,25.20
2022-10-22T11:28:06.594Z,26.63
2022-10-22T11:30:40.537Z,26.35
2022-10-22T11:33:15.354Z,23.98
2022-10-22T11:35:52.895Z,25.60
2022-10-22T11:38:26.783Z,25.08
2022-10-22T11:41:18.491Z,30.70
2022-10-22T11:44:01.431Z,29.13
2022-10-22T11:46:55.556Z,25.65
2022-10-22T11:49:57.053Z,24.15
2022-10-22T11:55:02.533Z,25.30
2022-10-22T11:57:43.863Z,23.83
2022-10-22T12:00:40.353Z,25.73
2022-10-22T12:03:23.868Z,29.23
2022-10-22T12:06:19.986Z,27.52
2022-10-22T12:08:53.535Z,30.63
2022-10-22T12:11:41.357Z,29.98
2022-10-22T12:14:19.994Z,30.00
2022-10-22T12:16:58.649Z,75.32
2022-10-22T12:19:40.088Z,79.82
2022-10-22T12:22:19.794Z,74.13
2022-10-22T12:24:50.063Z,46.63
2022-10-22T12:27:25.007Z,40.42
2022-10-22T12:29:57.864Z,36.53
2022-10-22T12:32:37.697Z,31.20
2022-10-22T12:35:09.261Z,36.08
2022-10-22T12:37:38.944Z,29.33
2022-10-22T12:40:28.092Z,54.05
2022-10-22T12:43:02.381Z,64.00
2022-10-22T12:45:33.395Z,97.57
2022-10-22T12:48:16.080Z,78.47
2022-10-22T12:50:50.165Z,104.07
2022-10-22T12:53:40.063Z,112.28
2022-10-22T12:56:13.031Z,64.63
2022-10-22T12:58:45.707Z,44.33
2022-10-22T13:01:17.885Z,49.95
2022-10-22T13:03:54.119Z,66.43
2022-10-22T13:06:25.538Z,118.85
2022-10-22T13:09:27.451Z,68.57
2022-10-22T13:12:04.450Z,96.75
2022-10-22T13:14:35.207Z,81.53
2022-10-22T13:17:24.123Z,53.70
2022-10-22T13:19:55.545Z,37.72
2022-10-22T13:25:16.459Z,31.38
2022-10-22T13:27:46.396Z,33.88
2022-10-22T13:30:53.568Z,33.25
2022-10-22T13:33:30.454Z,74.10
2022-10-22T13:36:10.605Z,69.18
2022-10-22T13:38:38.471Z,51.85
2022-10-22T13:41:23.036Z,45.35
2022-10-22T13:43:52.298Z,38.20
2022-10-22T13:46:21.936Z,32.72
2022-10-22T13:48:52.951Z,29.63
2022-10-22T13:51:28.296Z,28.65
2022-10-22T13:53:56.156Z,28.98
2022-10-22T13:56:24.341Z,36.55
2022-10-22T13:58:52.800Z,44.72
2022-10-22T14:01:23.957Z,44.45
2022-10-22T14:06:25.312Z,32.53
2022-10-22T14:08:59.467Z,33.40
2022-10-22T14:11:28.662Z,60.60
2022-10-22T14:13:56.700Z,51.70
2022-10-22T14:16:26.939Z,42.75
2022-10-22T14:18:56.349Z,48.63
2022-10-22T14:21:24.740Z,43.83
2022-10-22T14:23:54.472Z,46.90
2022-10-22T14:26:27.625Z,43.53
2022-10-22T14:29:11.659Z,38.58
2022-10-22T14:31:44.819Z,41.55
2022-10-22T14:34:15.564Z,46.67
2022-10-22T14:36:46.258Z,48.25
2022-10-22T14:39:14.359Z,41.28
2022-10-22T14:41:43.677Z,43.58
2022-10-22T14:44:14.971Z,43.47
2022-10-22T14:46:47.110Z,42.97
2022-10-22T14:49:14.911Z,39.20
2022-10-22T14:51:43.307Z,53.30
2022-10-22T14:54:11.396Z,54.70
2022-10-22T14:56:39.560Z,58.10
2022-10-22T14:59:07.310Z,54.50
2022-10-22T15:01:35.592Z,50.08
2022-10-22T15:04:05.925Z,41.58
2022-10-22T15:06:36.980Z,43.65
2022-10-22T15:09:05.046Z,41.75
2022-10-22T15:11:33.229Z,38.72
2022-10-22T15:14:01.024Z,39.85
2022-10-22T15:16:29.371Z,41.58
2022-10-22T15:18:57.503Z,51.03
2022-10-22T15:21:26.131Z,44.42
2022-10-22T15:23:54.059Z,48.40
2022-10-22T15:26:22.668Z,48.70
2022-10-22T15:28:53.019Z,48.13
2022-10-22T15:31:52.973Z,47.90
2022-10-22T15:34:23.552Z,63.30
2022-10-22T15:37:00.440Z,102.53
2022-10-22T15:39:28.837Z,109.22
2022-10-22T15:42:00.169Z,96.47
2022-10-22T15:46:58.525Z,103.85
2022-10-22T15:49:28.478Z,83.28
2022-10-22T15:51:57.105Z,71.60
2022-10-22T15:54:28.872Z,66.65
2022-10-22T15:56:58.798Z,55.03
2022-10-22T15:59:26.814Z,62.70
2022-10-22T16:01:55.184Z,55.05
2022-10-22T16:04:23.181Z,70.70
2022-10-22T16:06:53.222Z,57.08
2022-10-22T16:09:23.760Z,53.10
2022-10-22T16:14:21.997Z,50.33
2022-10-22T16:16:53.111Z,46.97
2022-10-22T16:19:23.477Z,49.20
2022-10-22T16:21:53.821Z,57.80
2022-10-22T16:24:22.392Z,38.10
2022-10-22T16:26:50.649Z,47.28
2022-10-22T16:29:18.538Z,47.17
2022-10-22T16:31:46.598Z,52.08
2022-10-22T16:34:14.462Z,61.42
2022-10-22T16:36:42.623Z,60.63
2022-10-22T16:39:10.670Z,60.08
2022-10-22T16:41:38.851Z,59.00
2022-10-22T16:44:09.777Z,57.47
2022-10-22T16:46:39.788Z,70.68
2022-10-22T16:49:10.578Z,79.50
2022-10-22T16:51:39.635Z,63.15
2022-10-22T16:54:11.269Z,150.13
2022-10-22T16:56:40.619Z,117.32
2022-10-22T16:59:08.728Z,112.35
2022-10-22T17:01:40.605Z,256.50
2022-10-22T17:04:09.432Z,152.55
2022-10-22T17:06:39.816Z,180.45
2022-10-22T17:09:08.811Z,183.63
2022-10-22T17:11:40.211Z,89.25
2022-10-22T17:14:10.839Z,96.22
2022-10-22T17:16:39.302Z,75.85
2022-10-22T17:19:07.429Z,89.15
2022-10-22T17:21:38.892Z,59.97
2022-10-22T17:24:12.809Z,60.15
2022-10-22T17:26:41.115Z,59.60
2022-10-22T17:29:08.894Z,84.40
2022-10-22T17:31:37.900Z,91.45
2022-10-22T17:34:11.030Z,71.80
2022-10-22T17:36:42.388Z,85.40
2022-10-22T17:39:18.383Z,77.43
2022-10-22T17:41:46.654Z,69.47
2022-10-22T17:44:16.187Z,65.53
2022-10-22T17:46:49.789Z,83.07
2022-10-22T17:49:20.455Z,68.53
2022-10-22T17:54:16.633Z,63.17
2022-10-22T17:56:44.839Z,57.60
2022-10-22T17:59:14.883Z,55.30
2022-10-22T18:01:47.884Z,59.42
2022-10-22T18:04:18.143Z,70.18
2022-10-22T18:06:47.519Z,73.03
2022-10-22T18:09:18.934Z,78.32
2022-10-22T18:11:53.012Z,198.27
2022-10-22T18:14:22.534Z,103.40
2022-10-22T18:16:51.469Z,74.85
2022-10-22T18:19:22.617Z,77.95
2022-10-22T18:21:51.184Z,65.90
2022-10-22T18:24:22.225Z,74.18
2022-10-22T18:26:50.632Z,77.25
2022-10-22T18:29:20.681Z,103.95
2022-10-22T18:31:49.438Z,259.17
2022-10-22T18:34:20.351Z,114.05
2022-10-22T18:36:51.260Z,107.22
2022-10-22T18:39:19.765Z,93.53
2022-10-22T18:41:48.232Z,155.70
2022-10-22T18:44:16.805Z,146.48
2022-10-22T18:46:45.228Z,75.32
2022-10-22T18:49:18.652Z,202.73
2022-10-22T18:51:53.119Z,248.10
2022-10-22T18:54:23.643Z,160.77
2022-10-22T18:56:53.647Z,160.82
2022-10-22T18:59:23.837Z,254.40
2022-10-22T19:01:53.810Z,222.65
2022-10-22T19:04:22.196Z,237.80
2022-10-22T19:06:50.307Z,247.60
2022-10-22T19:09:18.133Z,103.90
2022-10-22T19:11:47.142Z,137.93
2022-10-22T19:14:15.321Z,194.85
2022-10-22T19:16:43.420Z,131.48
2022-10-22T19:19:15.437Z,186.18
2022-10-22T19:21:43.569Z,116.65
2022-10-22T19:24:12.405Z,84.85
2022-10-22T19:26:41.440Z,109.57
2022-10-22T19:29:11.183Z,104.88
2022-10-22T19:31:41.134Z,99.97
2022-10-22T19:34:09.981Z,86.43
2022-10-22T19:36:38.399Z,73.93
2022-10-22T19:39:06.645Z,82.13
2022-10-22T19:41:35.289Z,89.07
2022-10-22T19:44:03.130Z,180.02
2022-10-22T19:46:32.848Z,120.47
2022-10-22T19:49:03.579Z,151.52
2022-10-22T19:51:34.040Z,190.70
2022-10-22T19:54:07.740Z,117.80
2022-10-22T19:56:37.959Z,112.43
2022-10-22T19:59:06.290Z,216.93
2022-10-22T20:01:34.950Z,146.38
2022-10-22T20:04:03.422Z,118.97
2022-10-22T20:06:31.721Z,144.35
2022-10-22T20:08:59.822Z,236.25
2022-10-22T20:11:29.726Z,154.57
2022-10-22T20:13:58.434Z,105.53
2022-10-22T20:16:31.581Z,225.10
2022-10-22T20:19:02.212Z,162.93
2022-10-22T20:23:59.352Z,98.18
2022-10-22T20:26:28.495Z,204.45
2022-10-22T20:28:57.824Z,201.32
2022-10-22T20:31:28.760Z,119.85
2022-10-22T20:33:58.675Z,104.28
2022-10-22T20:36:27.606Z,86.32
2022-10-22T20:39:06.431Z,131.82
2022-10-22T20:41:35.541Z,74.50
2022-10-22T20:44:03.999Z,91.10
2022-10-22T20:46:34.014Z,73.60
2022-10-22T20:49:05.105Z,77.97
2022-10-22T20:51:35.075Z,66.30
2022-10-22T20:54:02.984Z,55.28
2022-10-22T20:56:32.494Z,48.25
2022-10-22T20:59:08.388Z,46.20
2022-10-22T21:01:56.292Z,46.83
2022-10-22T21:04:24.086Z,37.17
2022-10-22T21:06:55.734Z,36.30
2022-10-22T21:09:24.852Z,34.92
2022-10-22T21:11:58.347Z,33.92
2022-10-22T21:14:26.202Z,34.80
2022-10-22T21:16:54.449Z,33.38
2022-10-22T21:19:23.409Z,32.58
2022-10-22T21:21:51.937Z,31.65
2022-10-22T21:24:24.826Z,32.90
2022-10-22T21:26:53.536Z,31.42
2022-10-22T21:29:21.998Z,31.77
2022-10-22T21:31:50.165Z,32.63
2022-10-22T21:34:17.929Z,34.28
2022-10-22T21:39:41.025Z,29.90
2022-10-22T21:42:10.425Z,29.92
2022-10-22T21:44:38.296Z,28.75
2022-10-22T21:47:06.352Z,31.83
2022-10-22T21:49:34.598Z,28.83
2022-10-22T21:52:03.218Z,30.70
2022-10-22T21:54:30.937Z,29.80
2022-10-22T21:56:59.172Z,28.85
2022-10-22T21:59:27.671Z,28.35
2022-10-22T22:01:55.742Z,28.50
2022-10-22T22:04:23.505Z,30.38
2022-10-22T22:06:51.655Z,29.95
2022-10-22T22:09:20.362Z,29.70
2022-10-22T22:11:48.552Z,28.65
2022-10-22T22:14:16.382Z,27.52
2022-10-22T22:16:44.451Z,25.73
2022-10-22T22:19:12.926Z,25.48
2022-10-22T22:21:41.706Z,22.13
2022-10-22T22:24:12.975Z,25.55
2022-10-22T22:26:41.539Z,24.88
2022-10-22T22:29:10.687Z,22.75
2022-10-22T22:31:39.095Z,21.25
2022-10-22T22:34:10.983Z,19.60
2022-10-22T22:36:42.147Z,16.52
2022-10-22T22:41:40.814Z,17.63
2022-10-22T22:44:08.513Z,17.85
2022-10-22T22:46:36.885Z,17.00
2022-10-22T22:49:05.349Z,18.83
2022-10-22T22:51:33.720Z,18.80
2022-10-22T22:54:02.366Z,23.83
2022-10-22T22:56:32.162Z,17.48
2022-10-22T22:59:00.353Z,19.48
2022-10-22T23:01:36.930Z,19.52
2022-10-22T23:04:07.729Z,17.75
2022-10-22T23:06:37.958Z,18.98
2022-10-22T23:09:09.067Z,19.40
2022-10-22T23:11:37.337Z,18.92
2022-10-22T23:14:07.532Z,18.50
2022-10-22T23:16:38.161Z,18.73
2022-10-22T23:19:06.376Z,19.83
2022-10-22T23:21:37.843Z,17.88
2022-10-22T23:24:09.166Z,19.00
2022-10-22T23:26:43.652Z,18.80
2022-10-22T23:29:13.049Z,18.80
2022-10-22T23:31:42.137Z,17.67
2022-10-22T23:34:12.403Z,17.90
2022-10-22T23:36:40.671Z,18.88
2022-10-22T23:39:11.381Z,19.35
2022-10-22T23:41:40.383Z,18.92
2022-10-22T23:44:09.265Z,18.48
2022-10-22T23:46:40.589Z,18.42
2022-10-22T23:49:10.032Z,18.50
2022-10-22T23:51:38.783Z,18.93
2022-10-22T23:54:10.837Z,19.30
2022-10-22T23:56:39.295Z,19.38
2022-10-22T23:59:08.177Z,19.17
